sensor_id;sensor_type;location;lat;lon;timestamp;P1;durP1;ratioP1;P2;durP2;ratioP2
74541;SDS011;63015;45.378;20.360;2023-03-04T00:01:45;66.78;;;23.58;;
74541;SDS011;63015;45.378;20.360;2023-03-04T00:03:46;59.95;;;23.92;;
74541;SDS011;63015;45.378;20.360;2023-03-04T00:05:46;61.70;;;23.48;;
74541;SDS011;63015;45.378;20.360;2023-03-04T00:07:47;67.90;;;24.50;;
74541;SDS011;63015;45.378;20.360;2023-03-04T00:09:47;59.65;;;23.25;;
74541;SDS011;63015;45.378;20.360;2023-03-04T00:11:48;61.13;;;24.42;;
74541;SDS011;63015;45.378;20.360;2023-03-04T00:13:48;61.60;;;23.60;;
74541;SDS011;63015;45.378;20.360;2023-03-04T00:15:49;68.05;;;24.33;;
74541;SDS011;63015;45.378;20.360;2023-03-04T00:17:50;61.33;;;24.25;;
74541;SDS011;63015;45.378;20.360;2023-03-04T00:19:50;65.22;;;25.25;;
74541;SDS011;63015;45.378;20.360;2023-03-04T00:21:51;67.68;;;24.85;;
74541;SDS011;63015;45.378;20.360;2023-03-04T00:23:51;61.05;;;24.15;;
74541;SDS011;63015;45.378;20.360;2023-03-04T00:25:52;67.28;;;24.65;;
74541;SDS011;63015;45.378;20.360;2023-03-04T00:27:52;61.22;;;23.73;;
74541;SDS011;63015;45.378;20.360;2023-03-04T00:29:54;60.95;;;23.58;;
74541;SDS011;63015;45.378;20.360;2023-03-04T00:31:55;64.93;;;23.83;;
74541;SDS011;63015;45.378;20.360;2023-03-04T00:33:56;65.57;;;23.10;;
74541;SDS011;63015;45.378;20.360;2023-03-04T00:35:56;66.43;;;23.60;;
74541;SDS011;63015;45.378;20.360;2023-03-04T00:37:57;65.13;;;23.08;;
74541;SDS011;63015;45.378;20.360;2023-03-04T00:39:57;63.03;;;23.50;;
74541;SDS011;63015;45.378;20.360;2023-03-04T00:41:58;67.40;;;24.45;;
74541;SDS011;63015;45.378;20.360;2023-03-04T00:43:59;59.90;;;23.52;;
74541;SDS011;63015;45.378;20.360;2023-03-04T00:45:59;60.75;;;22.98;;
74541;SDS011;63015;45.378;20.360;2023-03-04T00:48:00;67.13;;;24.13;;
74541;SDS011;63015;45.378;20.360;2023-03-04T00:50:00;59.83;;;21.58;;
74541;SDS011;63015;45.378;20.360;2023-03-04T00:52:01;62.67;;;22.90;;
74541;SDS011;63015;45.378;20.360;2023-03-04T00:54:02;60.13;;;21.05;;
74541;SDS011;63015;45.378;20.360;2023-03-04T00:56:02;62.67;;;23.02;;
74541;SDS011;63015;45.378;20.360;2023-03-04T00:58:04;64.15;;;24.55;;
74541;SDS011;63015;45.378;20.360;2023-03-04T01:00:05;56.17;;;20.67;;
74541;SDS011;63015;45.378;20.360;2023-03-04T01:02:06;64.85;;;22.60;;
74541;SDS011;63015;45.378;20.360;2023-03-04T01:04:06;62.25;;;22.25;;
74541;SDS011;63015;45.378;20.360;2023-03-04T01:06:07;59.63;;;22.33;;
74541;SDS011;63015;45.378;20.360;2023-03-04T01:08:08;62.28;;;24.85;;
74541;SDS011;63015;45.378;20.360;2023-03-04T01:10:09;57.30;;;22.83;;
74541;SDS011;63015;45.378;20.360;2023-03-04T01:12:11;63.70;;;22.85;;
74541;SDS011;63015;45.378;20.360;2023-03-04T01:14:12;59.78;;;22.02;;
74541;SDS011;63015;45.378;20.360;2023-03-04T01:16:12;64.20;;;21.42;;
74541;SDS011;63015;45.378;20.360;2023-03-04T01:18:13;60.25;;;23.33;;
74541;SDS011;63015;45.378;20.360;2023-03-04T01:20:15;59.15;;;23.65;;
74541;SDS011;63015;45.378;20.360;2023-03-04T01:22:16;58.42;;;24.42;;
74541;SDS011;63015;45.378;20.360;2023-03-04T01:24:18;66.85;;;24.85;;
74541;SDS011;63015;45.378;20.360;2023-03-04T01:26:18;66.47;;;24.48;;
74541;SDS011;63015;45.378;20.360;2023-03-04T01:28:20;65.90;;;25.33;;
74541;SDS011;63015;45.378;20.360;2023-03-04T01:30:21;67.03;;;25.90;;
74541;SDS011;63015;45.378;20.360;2023-03-04T01:32:22;68.20;;;24.35;;
74541;SDS011;63015;45.378;20.360;2023-03-04T01:34:22;65.00;;;25.08;;
74541;SDS011;63015;45.378;20.360;2023-03-04T01:36:23;59.33;;;22.60;;
74541;SDS011;63015;45.378;20.360;2023-03-04T01:38:23;65.80;;;25.73;;
74541;SDS011;63015;45.378;20.360;2023-03-04T01:40:24;71.85;;;25.65;;
74541;SDS011;63015;45.378;20.360;2023-03-04T01:42:25;72.70;;;25.52;;
74541;SDS011;63015;45.378;20.360;2023-03-04T01:44:29;68.70;;;25.98;;
74541;SDS011;63015;45.378;20.360;2023-03-04T01:46:30;63.90;;;25.63;;
74541;SDS011;63015;45.378;20.360;2023-03-04T01:48:35;65.70;;;25.65;;
74541;SDS011;63015;45.378;20.360;2023-03-04T01:50:37;68.20;;;25.17;;
74541;SDS011;63015;45.378;20.360;2023-03-04T01:52:38;63.20;;;24.38;;
74541;SDS011;63015;45.378;20.360;2023-03-04T01:54:40;76.28;;;26.20;;
74541;SDS011;63015;45.378;20.360;2023-03-04T01:56:40;73.20;;;27.23;;
74541;SDS011;63015;45.378;20.360;2023-03-04T01:58:44;72.35;;;26.20;;
74541;SDS011;63015;45.378;20.360;2023-03-04T02:00:45;66.38;;;26.38;;
74541;SDS011;63015;45.378;20.360;2023-03-04T02:02:46;63.47;;;25.67;;
74541;SDS011;63015;45.378;20.360;2023-03-04T02:04:50;63.03;;;26.13;;
74541;SDS011;63015;45.378;20.360;2023-03-04T02:06:50;65.90;;;25.58;;
74541;SDS011;63015;45.378;20.360;2023-03-04T02:08:51;59.33;;;24.85;;
74541;SDS011;63015;45.378;20.360;2023-03-04T02:10:52;65.07;;;25.38;;
74541;SDS011;63015;45.378;20.360;2023-03-04T02:12:53;61.45;;;26.02;;
74541;SDS011;63015;45.378;20.360;2023-03-04T02:14:54;52.00;;;20.42;;
74541;SDS011;63015;45.378;20.360;2023-03-04T02:16:55;55.58;;;22.13;;
74541;SDS011;63015;45.378;20.360;2023-03-04T02:18:56;56.00;;;23.17;;
74541;SDS011;63015;45.378;20.360;2023-03-04T02:23:38;58.25;;;23.13;;
74541;SDS011;63015;45.378;20.360;2023-03-04T02:28:08;53.20;;;22.45;;
74541;SDS011;63015;45.378;20.360;2023-03-04T02:30:09;49.92;;;22.33;;
74541;SDS011;63015;45.378;20.360;2023-03-04T02:32:19;49.38;;;21.55;;
74541;SDS011;63015;45.378;20.360;2023-03-04T02:34:24;54.38;;;22.05;;
74541;SDS011;63015;45.378;20.360;2023-03-04T02:36:29;60.53;;;22.85;;
74541;SDS011;63015;45.378;20.360;2023-03-04T02:38:31;60.20;;;23.45;;
74541;SDS011;63015;45.378;20.360;2023-03-04T02:40:32;54.05;;;22.88;;
74541;SDS011;63015;45.378;20.360;2023-03-04T02:42:34;60.30;;;23.33;;
74541;SDS011;63015;45.378;20.360;2023-03-04T02:44:36;57.60;;;22.35;;
74541;SDS011;63015;45.378;20.360;2023-03-04T02:46:43;53.58;;;22.10;;
74541;SDS011;63015;45.378;20.360;2023-03-04T02:48:44;56.63;;;22.70;;
74541;SDS011;63015;45.378;20.360;2023-03-04T02:50:46;60.80;;;23.27;;
74541;SDS011;63015;45.378;20.360;2023-03-04T02:52:49;53.65;;;21.92;;
74541;SDS011;63015;45.378;20.360;2023-03-04T02:54:49;51.63;;;21.67;;
74541;SDS011;63015;45.378;20.360;2023-03-04T02:56:51;58.50;;;22.90;;
74541;SDS011;63015;45.378;20.360;2023-03-04T02:58:56;48.53;;;21.95;;
74541;SDS011;63015;45.378;20.360;2023-03-04T03:00:57;48.78;;;21.20;;
74541;SDS011;63015;45.378;20.360;2023-03-04T03:02:58;53.15;;;22.40;;
74541;SDS011;63015;45.378;20.360;2023-03-04T03:04:59;56.85;;;24.65;;
74541;SDS011;63015;45.378;20.360;2023-03-04T03:07:00;61.00;;;22.80;;
74541;SDS011;63015;45.378;20.360;2023-03-04T03:09:01;56.03;;;23.48;;
74541;SDS011;63015;45.378;20.360;2023-03-04T03:11:02;61.83;;;23.50;;
74541;SDS011;63015;45.378;20.360;2023-03-04T03:13:05;50.17;;;23.38;;
74541;SDS011;63015;45.378;20.360;2023-03-04T03:15:06;54.40;;;22.58;;
74541;SDS011;63015;45.378;20.360;2023-03-04T03:17:07;51.72;;;22.77;;
74541;SDS011;63015;45.378;20.360;2023-03-04T03:19:07;56.65;;;21.95;;
74541;SDS011;63015;45.378;20.360;2023-03-04T03:21:09;54.03;;;23.02;;
74541;SDS011;63015;45.378;20.360;2023-03-04T03:23:10;55.90;;;23.58;;
74541;SDS011;63015;45.378;20.360;2023-03-04T03:25:10;60.33;;;24.05;;
74541;SDS011;63015;45.378;20.360;2023-03-04T03:27:12;55.38;;;23.92;;
74541;SDS011;63015;45.378;20.360;2023-03-04T03:29:13;54.97;;;23.70;;
74541;SDS011;63015;45.378;20.360;2023-03-04T03:31:13;54.72;;;22.42;;
74541;SDS011;63015;45.378;20.360;2023-03-04T03:33:14;54.63;;;24.00;;
74541;SDS011;63015;45.378;20.360;2023-03-04T03:35:15;54.03;;;21.92;;
74541;SDS011;63015;45.378;20.360;2023-03-04T03:37:15;58.78;;;23.88;;
74541;SDS011;63015;45.378;20.360;2023-03-04T03:39:16;50.97;;;23.02;;
74541;SDS011;63015;45.378;20.360;2023-03-04T03:41:17;56.60;;;22.42;;
74541;SDS011;63015;45.378;20.360;2023-03-04T03:43:17;54.30;;;22.83;;
74541;SDS011;63015;45.378;20.360;2023-03-04T03:45:18;53.33;;;22.50;;
74541;SDS011;63015;45.378;20.360;2023-03-04T03:47:19;53.75;;;22.88;;
74541;SDS011;63015;45.378;20.360;2023-03-04T03:49:19;55.75;;;23.83;;
74541;SDS011;63015;45.378;20.360;2023-03-04T03:51:20;55.45;;;23.23;;
74541;SDS011;63015;45.378;20.360;2023-03-04T03:53:20;57.78;;;23.05;;
74541;SDS011;63015;45.378;20.360;2023-03-04T03:55:21;62.47;;;24.25;;
74541;SDS011;63015;45.378;20.360;2023-03-04T03:57:22;56.53;;;23.15;;
74541;SDS011;63015;45.378;20.360;2023-03-04T03:59:22;61.55;;;24.67;;
74541;SDS011;63015;45.378;20.360;2023-03-04T04:01:23;54.47;;;23.27;;
74541;SDS011;63015;45.378;20.360;2023-03-04T04:03:23;57.00;;;22.25;;
74541;SDS011;63015;45.378;20.360;2023-03-04T04:05:24;51.05;;;21.20;;
74541;SDS011;63015;45.378;20.360;2023-03-04T04:07:25;57.53;;;23.30;;
74541;SDS011;63015;45.378;20.360;2023-03-04T04:09:25;56.38;;;21.75;;
74541;SDS011;63015;45.378;20.360;2023-03-04T04:11:26;55.33;;;23.55;;
74541;SDS011;63015;45.378;20.360;2023-03-04T04:13:27;53.83;;;22.52;;
74541;SDS011;63015;45.378;20.360;2023-03-04T04:15:27;54.30;;;22.92;;
74541;SDS011;63015;45.378;20.360;2023-03-04T04:17:28;54.80;;;23.35;;
74541;SDS011;63015;45.378;20.360;2023-03-04T04:19:28;54.17;;;22.60;;
74541;SDS011;63015;45.378;20.360;2023-03-04T04:21:29;54.25;;;22.85;;
74541;SDS011;63015;45.378;20.360;2023-03-04T04:23:29;52.65;;;22.63;;
74541;SDS011;63015;45.378;20.360;2023-03-04T04:25:30;53.47;;;22.08;;
74541;SDS011;63015;45.378;20.360;2023-03-04T04:27:30;50.35;;;20.25;;
74541;SDS011;63015;45.378;20.360;2023-03-04T04:29:31;51.45;;;20.90;;
74541;SDS011;63015;45.378;20.360;2023-03-04T04:31:31;57.10;;;22.25;;
74541;SDS011;63015;45.378;20.360;2023-03-04T04:33:32;52.38;;;21.05;;
74541;SDS011;63015;45.378;20.360;2023-03-04T04:35:32;49.53;;;20.95;;
74541;SDS011;63015;45.378;20.360;2023-03-04T04:37:35;48.92;;;21.13;;
74541;SDS011;63015;45.378;20.360;2023-03-04T04:39:36;46.72;;;19.83;;
74541;SDS011;63015;45.378;20.360;2023-03-04T04:41:38;48.65;;;20.88;;
74541;SDS011;63015;45.378;20.360;2023-03-04T04:43:39;52.25;;;21.70;;
74541;SDS011;63015;45.378;20.360;2023-03-04T04:45:40;49.28;;;19.80;;
74541;SDS011;63015;45.378;20.360;2023-03-04T04:47:40;46.47;;;20.10;;
74541;SDS011;63015;45.378;20.360;2023-03-04T04:49:41;47.58;;;20.08;;
74541;SDS011;63015;45.378;20.360;2023-03-04T04:51:41;47.25;;;20.42;;
74541;SDS011;63015;45.378;20.360;2023-03-04T04:53:42;45.70;;;20.33;;
74541;SDS011;63015;45.378;20.360;2023-03-04T04:55:43;46.85;;;20.35;;
74541;SDS011;63015;45.378;20.360;2023-03-04T04:57:44;49.42;;;20.05;;
74541;SDS011;63015;45.378;20.360;2023-03-04T04:59:45;43.28;;;19.75;;
74541;SDS011;63015;45.378;20.360;2023-03-04T05:01:45;48.92;;;20.55;;
74541;SDS011;63015;45.378;20.360;2023-03-04T05:03:45;45.72;;;19.70;;
74541;SDS011;63015;45.378;20.360;2023-03-04T05:05:48;50.05;;;20.65;;
74541;SDS011;63015;45.378;20.360;2023-03-04T05:07:49;49.13;;;19.67;;
74541;SDS011;63015;45.378;20.360;2023-03-04T05:09:50;41.70;;;19.95;;
74541;SDS011;63015;45.378;20.360;2023-03-04T05:11:50;48.55;;;20.65;;
74541;SDS011;63015;45.378;20.360;2023-03-04T05:13:51;45.72;;;19.98;;
74541;SDS011;63015;45.378;20.360;2023-03-04T05:15:52;49.58;;;21.33;;
74541;SDS011;63015;45.378;20.360;2023-03-04T05:17:53;44.92;;;19.65;;
74541;SDS011;63015;45.378;20.360;2023-03-04T05:19:53;45.20;;;19.45;;
74541;SDS011;63015;45.378;20.360;2023-03-04T05:21:54;47.55;;;19.92;;
74541;SDS011;63015;45.378;20.360;2023-03-04T05:23:55;43.47;;;17.95;;
74541;SDS011;63015;45.378;20.360;2023-03-04T05:25:55;47.35;;;21.15;;
74541;SDS011;63015;45.378;20.360;2023-03-04T05:27:56;44.92;;;18.73;;
74541;SDS011;63015;45.378;20.360;2023-03-04T05:29:56;46.75;;;19.70;;
74541;SDS011;63015;45.378;20.360;2023-03-04T05:32:00;44.20;;;18.95;;
74541;SDS011;63015;45.378;20.360;2023-03-04T05:34:00;45.80;;;18.55;;
74541;SDS011;63015;45.378;20.360;2023-03-04T05:36:02;42.53;;;19.58;;
74541;SDS011;63015;45.378;20.360;2023-03-04T05:38:04;46.42;;;20.35;;
74541;SDS011;63015;45.378;20.360;2023-03-04T05:40:07;46.95;;;19.40;;
74541;SDS011;63015;45.378;20.360;2023-03-04T05:42:09;51.17;;;20.23;;
74541;SDS011;63015;45.378;20.360;2023-03-04T05:44:09;44.50;;;20.25;;
74541;SDS011;63015;45.378;20.360;2023-03-04T05:46:14;48.30;;;19.98;;
74541;SDS011;63015;45.378;20.360;2023-03-04T05:48:16;49.70;;;20.38;;
74541;SDS011;63015;45.378;20.360;2023-03-04T05:50:17;49.13;;;21.60;;
74541;SDS011;63015;45.378;20.360;2023-03-04T05:52:17;41.28;;;19.50;;
74541;SDS011;63015;45.378;20.360;2023-03-04T05:54:18;42.53;;;19.02;;
74541;SDS011;63015;45.378;20.360;2023-03-04T05:56:19;51.53;;;22.90;;
74541;SDS011;63015;45.378;20.360;2023-03-04T05:58:20;55.20;;;23.23;;
74541;SDS011;63015;45.378;20.360;2023-03-04T06:00:20;62.13;;;27.33;;
74541;SDS011;63015;45.378;20.360;2023-03-04T06:02:21;51.45;;;22.58;;
74541;SDS011;63015;45.378;20.360;2023-03-04T06:04:21;47.13;;;20.20;;
74541;SDS011;63015;45.378;20.360;2023-03-04T06:06:22;43.00;;;17.90;;
74541;SDS011;63015;45.378;20.360;2023-03-04T06:08:22;51.40;;;22.55;;
74541;SDS011;63015;45.378;20.360;2023-03-04T06:10:23;58.85;;;25.95;;
74541;SDS011;63015;45.378;20.360;2023-03-04T06:12:24;50.83;;;21.90;;
74541;SDS011;63015;45.378;20.360;2023-03-04T06:14:24;41.88;;;19.75;;
74541;SDS011;63015;45.378;20.360;2023-03-04T06:16:25;40.85;;;18.48;;
74541;SDS011;63015;45.378;20.360;2023-03-04T06:18:26;44.20;;;21.45;;
74541;SDS011;63015;45.378;20.360;2023-03-04T06:20:28;42.15;;;18.23;;
74541;SDS011;63015;45.378;20.360;2023-03-04T06:22:28;46.53;;;21.70;;
74541;SDS011;63015;45.378;20.360;2023-03-04T06:24:29;43.42;;;22.02;;
74541;SDS011;63015;45.378;20.360;2023-03-04T06:26:30;46.72;;;19.55;;
74541;SDS011;63015;45.378;20.360;2023-03-04T06:28:30;40.92;;;19.17;;
74541;SDS011;63015;45.378;20.360;2023-03-04T06:30:31;49.15;;;21.33;;
74541;SDS011;63015;45.378;20.360;2023-03-04T06:32:31;44.67;;;19.83;;
74541;SDS011;63015;45.378;20.360;2023-03-04T06:34:32;46.10;;;21.08;;
74541;SDS011;63015;45.378;20.360;2023-03-04T06:36:32;44.50;;;20.55;;
74541;SDS011;63015;45.378;20.360;2023-03-04T06:38:33;43.97;;;21.33;;
74541;SDS011;63015;45.378;20.360;2023-03-04T06:40:34;42.90;;;19.35;;
74541;SDS011;63015;45.378;20.360;2023-03-04T06:42:35;46.95;;;21.05;;
74541;SDS011;63015;45.378;20.360;2023-03-04T06:44:35;48.53;;;19.42;;
74541;SDS011;63015;45.378;20.360;2023-03-04T06:46:36;43.85;;;19.02;;
74541;SDS011;63015;45.378;20.360;2023-03-04T06:48:36;47.35;;;20.70;;
74541;SDS011;63015;45.378;20.360;2023-03-04T06:50:40;40.88;;;18.20;;
74541;SDS011;63015;45.378;20.360;2023-03-04T06:54:41;41.83;;;18.23;;
74541;SDS011;63015;45.378;20.360;2023-03-04T06:56:42;43.20;;;18.95;;
74541;SDS011;63015;45.378;20.360;2023-03-04T06:58:43;44.10;;;20.30;;
74541;SDS011;63015;45.378;20.360;2023-03-04T07:00:43;42.33;;;19.25;;
74541;SDS011;63015;45.378;20.360;2023-03-04T07:02:44;49.97;;;21.40;;
74541;SDS011;63015;45.378;20.360;2023-03-04T07:04:45;41.10;;;17.83;;
74541;SDS011;63015;45.378;20.360;2023-03-04T07:06:45;48.78;;;21.20;;
74541;SDS011;63015;45.378;20.360;2023-03-04T07:08:47;45.22;;;20.48;;
74541;SDS011;63015;45.378;20.360;2023-03-04T07:10:48;54.85;;;23.15;;
74541;SDS011;63015;45.378;20.360;2023-03-04T07:12:48;43.75;;;20.23;;
74541;SDS011;63015;45.378;20.360;2023-03-04T07:14:49;44.92;;;20.27;;
74541;SDS011;63015;45.378;20.360;2023-03-04T07:16:49;52.33;;;21.65;;
74541;SDS011;63015;45.378;20.360;2023-03-04T07:18:50;41.30;;;19.13;;
74541;SDS011;63015;45.378;20.360;2023-03-04T07:20:51;46.97;;;20.80;;
74541;SDS011;63015;45.378;20.360;2023-03-04T07:22:52;43.60;;;20.13;;
74541;SDS011;63015;45.378;20.360;2023-03-04T07:24:52;51.53;;;21.80;;
74541;SDS011;63015;45.378;20.360;2023-03-04T07:26:53;47.25;;;20.67;;
74541;SDS011;63015;45.378;20.360;2023-03-04T07:28:54;41.58;;;18.52;;
74541;SDS011;63015;45.378;20.360;2023-03-04T07:31:06;44.05;;;19.90;;
74541;SDS011;63015;45.378;20.360;2023-03-04T07:33:19;49.60;;;19.92;;
74541;SDS011;63015;45.378;20.360;2023-03-04T07:35:20;49.15;;;22.10;;
74541;SDS011;63015;45.378;20.360;2023-03-04T07:37:20;45.28;;;19.70;;
74541;SDS011;63015;45.378;20.360;2023-03-04T07:39:21;42.28;;;20.00;;
74541;SDS011;63015;45.378;20.360;2023-03-04T07:41:22;42.72;;;20.50;;
74541;SDS011;63015;45.378;20.360;2023-03-04T07:43:24;43.67;;;21.00;;
74541;SDS011;63015;45.378;20.360;2023-03-04T07:45:25;45.45;;;23.08;;
74541;SDS011;63015;45.378;20.360;2023-03-04T07:47:26;46.88;;;20.85;;
74541;SDS011;63015;45.378;20.360;2023-03-04T07:49:27;47.28;;;21.23;;
74541;SDS011;63015;45.378;20.360;2023-03-04T07:51:27;48.08;;;21.17;;
74541;SDS011;63015;45.378;20.360;2023-03-04T07:53:28;53.95;;;23.30;;
74541;SDS011;63015;45.378;20.360;2023-03-04T07:55:28;51.30;;;22.73;;
74541;SDS011;63015;45.378;20.360;2023-03-04T07:57:30;48.75;;;21.95;;
74541;SDS011;63015;45.378;20.360;2023-03-04T07:59:31;53.10;;;23.20;;
74541;SDS011;63015;45.378;20.360;2023-03-04T08:01:32;47.53;;;23.08;;
74541;SDS011;63015;45.378;20.360;2023-03-04T08:03:34;51.38;;;22.58;;
74541;SDS011;63015;45.378;20.360;2023-03-04T08:05:37;58.83;;;25.35;;
74541;SDS011;63015;45.378;20.360;2023-03-04T08:09:39;51.15;;;21.13;;
74541;SDS011;63015;45.378;20.360;2023-03-04T08:11:39;47.38;;;21.67;;
74541;SDS011;63015;45.378;20.360;2023-03-04T08:13:40;50.00;;;21.80;;
74541;SDS011;63015;45.378;20.360;2023-03-04T08:15:41;46.55;;;20.52;;
74541;SDS011;63015;45.378;20.360;2023-03-04T08:17:42;47.03;;;21.00;;
74541;SDS011;63015;45.378;20.360;2023-03-04T08:19:42;46.10;;;20.80;;
74541;SDS011;63015;45.378;20.360;2023-03-04T08:21:43;47.95;;;20.73;;
74541;SDS011;63015;45.378;20.360;2023-03-04T08:23:44;53.50;;;22.55;;
74541;SDS011;63015;45.378;20.360;2023-03-04T08:25:45;44.33;;;19.95;;
74541;SDS011;63015;45.378;20.360;2023-03-04T08:27:46;45.83;;;19.98;;
74541;SDS011;63015;45.378;20.360;2023-03-04T08:29:46;46.63;;;21.02;;
74541;SDS011;63015;45.378;20.360;2023-03-04T08:31:47;50.33;;;22.42;;
74541;SDS011;63015;45.378;20.360;2023-03-04T08:33:48;39.58;;;17.73;;
74541;SDS011;63015;45.378;20.360;2023-03-04T08:35:50;45.80;;;21.25;;
74541;SDS011;63015;45.378;20.360;2023-03-04T08:37:50;45.03;;;20.45;;
74541;SDS011;63015;45.378;20.360;2023-03-04T08:39:51;43.72;;;20.48;;
74541;SDS011;63015;45.378;20.360;2023-03-04T08:41:51;45.97;;;21.08;;
74541;SDS011;63015;45.378;20.360;2023-03-04T08:43:52;48.90;;;21.58;;
74541;SDS011;63015;45.378;20.360;2023-03-04T08:45:52;46.67;;;22.35;;
74541;SDS011;63015;45.378;20.360;2023-03-04T08:47:53;47.20;;;21.52;;
74541;SDS011;63015;45.378;20.360;2023-03-04T08:49:54;41.65;;;19.30;;
74541;SDS011;63015;45.378;20.360;2023-03-04T08:51:54;45.42;;;21.35;;
74541;SDS011;63015;45.378;20.360;2023-03-04T08:53:55;42.95;;;19.35;;
74541;SDS011;63015;45.378;20.360;2023-03-04T08:55:55;40.63;;;19.58;;
74541;SDS011;63015;45.378;20.360;2023-03-04T08:57:56;45.65;;;20.65;;
74541;SDS011;63015;45.378;20.360;2023-03-04T08:59:56;41.75;;;17.30;;
74541;SDS011;63015;45.378;20.360;2023-03-04T09:01:57;46.20;;;20.33;;
74541;SDS011;63015;45.378;20.360;2023-03-04T09:03:57;42.45;;;19.67;;
74541;SDS011;63015;45.378;20.360;2023-03-04T09:06:00;44.50;;;20.83;;
74541;SDS011;63015;45.378;20.360;2023-03-04T09:08:01;41.45;;;18.60;;
74541;SDS011;63015;45.378;20.360;2023-03-04T09:10:01;45.40;;;20.83;;
74541;SDS011;63015;45.378;20.360;2023-03-04T09:12:03;45.47;;;21.58;;
74541;SDS011;63015;45.378;20.360;2023-03-04T09:14:03;42.42;;;20.50;;
74541;SDS011;63015;45.378;20.360;2023-03-04T09:16:08;48.70;;;21.92;;
74541;SDS011;63015;45.378;20.360;2023-03-04T09:18:13;45.88;;;20.42;;
74541;SDS011;63015;45.378;20.360;2023-03-04T09:20:14;42.17;;;19.90;;
74541;SDS011;63015;45.378;20.360;2023-03-04T09:22:15;45.63;;;18.88;;
74541;SDS011;63015;45.378;20.360;2023-03-04T09:24:15;52.58;;;23.50;;
74541;SDS011;63015;45.378;20.360;2023-03-04T09:26:25;45.97;;;22.42;;
74541;SDS011;63015;45.378;20.360;2023-03-04T09:28:27;50.28;;;22.15;;
74541;SDS011;63015;45.378;20.360;2023-03-04T09:30:27;46.72;;;21.52;;
74541;SDS011;63015;45.378;20.360;2023-03-04T09:32:28;40.42;;;19.60;;
74541;SDS011;63015;45.378;20.360;2023-03-04T09:34:28;46.85;;;23.13;;
74541;SDS011;63015;45.378;20.360;2023-03-04T09:36:29;48.78;;;21.88;;
74541;SDS011;63015;45.378;20.360;2023-03-04T09:38:29;47.33;;;22.50;;
74541;SDS011;63015;45.378;20.360;2023-03-04T09:40:45;53.35;;;26.27;;
74541;SDS011;63015;45.378;20.360;2023-03-04T09:42:49;48.67;;;20.85;;
74541;SDS011;63015;45.378;20.360;2023-03-04T09:44:53;48.88;;;22.42;;
74541;SDS011;63015;45.378;20.360;2023-03-04T09:46:56;46.65;;;20.25;;
74541;SDS011;63015;45.378;20.360;2023-03-04T09:48:59;46.53;;;21.40;;
74541;SDS011;63015;45.378;20.360;2023-03-04T09:51:04;49.28;;;25.13;;
74541;SDS011;63015;45.378;20.360;2023-03-04T09:53:20;52.80;;;24.42;;
74541;SDS011;63015;45.378;20.360;2023-03-04T09:55:27;50.42;;;23.80;;
74541;SDS011;63015;45.378;20.360;2023-03-04T09:57:42;45.80;;;21.02;;
74541;SDS011;63015;45.378;20.360;2023-03-04T10:00:02;47.58;;;22.02;;
74541;SDS011;63015;45.378;20.360;2023-03-04T10:04:49;49.90;;;21.45;;
74541;SDS011;63015;45.378;20.360;2023-03-04T10:06:51;48.83;;;24.23;;
74541;SDS011;63015;45.378;20.360;2023-03-04T10:11:38;53.92;;;24.02;;
74541;SDS011;63015;45.378;20.360;2023-03-04T10:13:46;45.67;;;21.40;;
74541;SDS011;63015;45.378;20.360;2023-03-04T10:15:55;51.65;;;24.67;;
74541;SDS011;63015;45.378;20.360;2023-03-04T10:18:03;50.35;;;24.38;;
74541;SDS011;63015;45.378;20.360;2023-03-04T10:20:25;46.45;;;22.50;;
74541;SDS011;63015;45.378;20.360;2023-03-04T10:22:32;42.15;;;20.38;;
74541;SDS011;63015;45.378;20.360;2023-03-04T10:24:35;38.03;;;19.08;;
74541;SDS011;63015;45.378;20.360;2023-03-04T10:26:36;54.35;;;25.42;;
74541;SDS011;63015;45.378;20.360;2023-03-04T10:28:38;39.95;;;19.63;;
74541;SDS011;63015;45.378;20.360;2023-03-04T10:32:44;44.97;;;21.48;;
74541;SDS011;63015;45.378;20.360;2023-03-04T10:34:45;43.70;;;20.85;;
74541;SDS011;63015;45.378;20.360;2023-03-04T10:36:49;47.65;;;22.48;;
74541;SDS011;63015;45.378;20.360;2023-03-04T10:39:06;46.08;;;23.00;;
74541;SDS011;63015;45.378;20.360;2023-03-04T10:41:14;42.20;;;21.60;;
74541;SDS011;63015;45.378;20.360;2023-03-04T10:45:22;44.90;;;21.75;;
74541;SDS011;63015;45.378;20.360;2023-03-04T10:47:25;41.15;;;20.50;;
74541;SDS011;63015;45.378;20.360;2023-03-04T10:49:28;47.35;;;22.63;;
74541;SDS011;63015;45.378;20.360;2023-03-04T10:51:29;38.50;;;19.08;;
74541;SDS011;63015;45.378;20.360;2023-03-04T10:53:35;41.25;;;20.92;;
74541;SDS011;63015;45.378;20.360;2023-03-04T10:55:42;41.70;;;19.33;;
74541;SDS011;63015;45.378;20.360;2023-03-04T10:57:47;41.05;;;19.63;;
74541;SDS011;63015;45.378;20.360;2023-03-04T11:02:01;37.60;;;19.08;;
74541;SDS011;63015;45.378;20.360;2023-03-04T11:04:16;42.40;;;19.75;;
74541;SDS011;63015;45.378;20.360;2023-03-04T11:06:21;31.60;;;15.60;;
74541;SDS011;63015;45.378;20.360;2023-03-04T11:08:22;38.72;;;19.60;;
74541;SDS011;63015;45.378;20.360;2023-03-04T11:12:35;37.38;;;18.38;;
74541;SDS011;63015;45.378;20.360;2023-03-04T11:14:38;34.58;;;16.23;;
74541;SDS011;63015;45.378;20.360;2023-03-04T11:18:40;36.03;;;17.00;;
74541;SDS011;63015;45.378;20.360;2023-03-04T11:20:43;35.15;;;16.83;;
74541;SDS011;63015;45.378;20.360;2023-03-04T11:22:47;34.83;;;16.65;;
74541;SDS011;63015;45.378;20.360;2023-03-04T11:24:53;35.08;;;18.40;;
74541;SDS011;63015;45.378;20.360;2023-03-04T11:27:04;41.42;;;19.13;;
74541;SDS011;63015;45.378;20.360;2023-03-04T11:31:29;41.00;;;19.98;;
74541;SDS011;63015;45.378;20.360;2023-03-04T11:33:56;40.63;;;20.35;;
74541;SDS011;63015;45.378;20.360;2023-03-04T11:36:08;34.78;;;17.33;;
74541;SDS011;63015;45.378;20.360;2023-03-04T11:38:49;36.47;;;18.63;;
74541;SDS011;63015;45.378;20.360;2023-03-04T11:40:51;39.35;;;18.42;;
74541;SDS011;63015;45.378;20.360;2023-03-04T11:42:57;40.47;;;19.27;;
74541;SDS011;63015;45.378;20.360;2023-03-04T11:45:49;37.55;;;18.08;;
74541;SDS011;63015;45.378;20.360;2023-03-04T11:50:16;37.35;;;16.83;;
74541;SDS011;63015;45.378;20.360;2023-03-04T11:57:21;33.72;;;16.30;;
74541;SDS011;63015;45.378;20.360;2023-03-04T12:17:58;35.63;;;16.77;;
74541;SDS011;63015;45.378;20.360;2023-03-04T12:27:07;33.42;;;16.85;;
74541;SDS011;63015;45.378;20.360;2023-03-04T12:31:42;33.40;;;16.60;;
74541;SDS011;63015;45.378;20.360;2023-03-04T12:35:56;36.47;;;17.55;;
74541;SDS011;63015;45.378;20.360;2023-03-04T12:43:10;30.63;;;14.90;;
74541;SDS011;63015;45.378;20.360;2023-03-04T12:45:01;30.38;;;15.20;;
74541;SDS011;63015;45.378;20.360;2023-03-04T12:54:13;25.83;;;13.07;;
74541;SDS011;63015;45.378;20.360;2023-03-04T12:56:44;22.50;;;11.30;;
74541;SDS011;63015;45.378;20.360;2023-03-04T12:58:51;25.58;;;13.13;;
74541;SDS011;63015;45.378;20.360;2023-03-04T13:03:18;30.60;;;13.38;;
74541;SDS011;63015;45.378;20.360;2023-03-04T13:05:43;31.60;;;14.48;;